createdAt,value
2019-01-05T00:00:01.311Z,67.70
2019-01-05T00:03:11.499Z,73.77
2019-01-05T00:06:04.508Z,72.57
2019-01-05T00:09:00.548Z,71.47
2019-01-05T00:12:08.151Z,71.97
2019-01-05T00:15:01.658Z,76.03
2019-01-05T00:18:03.273Z,70.10
2019-01-05T00:21:06.082Z,73.37
2019-01-05T00:24:01.627Z,72.80
2019-01-05T00:27:00.207Z,72.23
2019-01-05T00:30:01.896Z,67.53
2019-01-05T00:33:04.844Z,76.43
2019-01-05T00:36:31.367Z,75.33
2019-01-05T00:39:28.730Z,76.13
2019-01-05T00:42:19.880Z,68.13
2019-01-05T00:45:09.883Z,75.13
2019-01-05T00:48:01.725Z,73.00
2019-01-05T00:51:11.467Z,79.40
2019-01-05T00:54:11.680Z,80.03
2019-01-05T00:57:16.028Z,80.90
2019-01-05T01:03:36.475Z,80.13
2019-01-05T01:06:39.159Z,70.70
2019-01-05T01:09:32.026Z,74.67
2019-01-05T01:12:34.890Z,78.63
2019-01-05T01:15:24.764Z,72.90
2019-01-05T01:18:14.128Z,70.23
2019-01-05T01:21:05.259Z,72.83
2019-01-05T01:23:58.232Z,73.87
2019-01-05T01:27:16.081Z,67.13
2019-01-05T01:30:09.424Z,78.10
2019-01-05T01:32:59.836Z,77.77
2019-01-05T01:35:48.845Z,82.00
2019-01-05T01:39:08.132Z,76.23
2019-01-05T01:42:04.153Z,74.17
2019-01-05T01:44:57.606Z,72.47
2019-01-05T01:47:57.360Z,69.53
2019-01-05T01:50:53.815Z,73.57
2019-01-05T01:53:43.334Z,67.33
2019-01-05T01:56:56.107Z,66.77
2019-01-05T02:00:00.514Z,70.17
2019-01-05T02:03:08.070Z,65.90
2019-01-05T02:06:04.674Z,62.27
2019-01-05T02:09:02.074Z,62.13
2019-01-05T02:12:01.874Z,70.87
2019-01-05T02:14:59.227Z,56.93
2019-01-05T02:18:00.512Z,57.77
2019-01-05T02:21:14.850Z,57.47
2019-01-05T02:24:40.947Z,56.37
2019-01-05T02:28:16.078Z,56.80
2019-01-05T02:31:43.727Z,59.10
2019-01-05T02:35:11.234Z,54.50
2019-01-05T02:39:10.263Z,50.83
2019-01-05T02:42:24.343Z,51.57
2019-01-05T02:46:01.162Z,46.20
2019-01-05T02:49:22.169Z,37.83
2019-01-05T02:56:46.586Z,36.60
2019-01-05T03:00:06.051Z,34.20
2019-01-05T03:07:33.676Z,26.50
2019-01-05T03:11:05.074Z,26.60
2019-01-05T03:14:51.082Z,26.03
2019-01-05T03:18:36.252Z,27.07
2019-01-05T03:22:27.559Z,26.53
2019-01-05T03:25:53.993Z,24.07
2019-01-05T03:29:56.137Z,24.10
2019-01-05T03:33:54.140Z,24.87
2019-01-05T03:37:26.639Z,24.10
2019-01-05T03:40:51.914Z,28.03
2019-01-05T03:44:37.340Z,25.27
2019-01-05T03:48:40.241Z,23.90
2019-01-05T03:52:12.152Z,26.40
2019-01-05T03:55:51.222Z,24.50
2019-01-05T03:59:45.152Z,25.43
2019-01-05T04:03:20.048Z,24.90
2019-01-05T04:06:45.936Z,26.80
2019-01-05T04:10:37.615Z,22.90
2019-01-05T04:14:20.232Z,22.80
2019-01-05T04:17:57.775Z,23.07
2019-01-05T04:21:30.877Z,21.40
2019-01-05T04:24:52.488Z,21.03
2019-01-05T04:28:25.441Z,22.17
2019-01-05T04:32:23.530Z,22.03
2019-01-05T04:35:57.137Z,22.40
2019-01-05T04:39:32.118Z,23.20
2019-01-05T04:43:10.197Z,22.20
2019-01-05T04:46:25.582Z,22.37
2019-01-05T04:50:02.798Z,20.87
2019-01-05T04:53:37.993Z,23.57
2019-01-05T04:57:02.364Z,19.57
2019-01-05T05:00:34.398Z,18.97
2019-01-05T05:04:12.934Z,21.33
2019-01-05T05:07:30.535Z,22.60
2019-01-05T05:10:56.006Z,21.33
2019-01-05T05:14:33.086Z,24.47
2019-01-05T05:17:58.361Z,25.83
2019-01-05T05:21:31.855Z,23.33
2019-01-05T05:28:29.414Z,22.37
2019-01-05T05:31:55.129Z,25.50
2019-01-05T05:35:36.226Z,23.60
2019-01-05T05:39:01.607Z,23.40
2019-01-05T05:42:33.294Z,22.37
2019-01-05T05:46:27.203Z,23.13
2019-01-05T05:49:57.250Z,25.60
2019-01-05T05:57:06.062Z,21.97
2019-01-05T06:01:05.841Z,20.10
2019-01-05T06:04:30.874Z,24.00
2019-01-05T06:08:06.348Z,21.67
2019-01-05T06:11:39.433Z,20.57
2019-01-05T06:15:20.967Z,21.77
2019-01-05T06:18:49.980Z,18.60
2019-01-05T06:22:15.734Z,19.80
2019-01-05T06:25:52.277Z,19.27
2019-01-05T06:29:40.159Z,22.57
2019-01-05T06:33:11.096Z,21.83
2019-01-05T06:36:39.801Z,20.87
2019-01-05T06:40:31.105Z,20.17
2019-01-05T06:44:13.681Z,19.73
2019-01-05T06:48:09.552Z,21.10
2019-01-05T06:51:57.254Z,20.37
2019-01-05T06:55:24.641Z,17.80
2019-01-05T06:58:39.832Z,17.40
2019-01-05T07:02:05.377Z,18.07
2019-01-05T07:05:47.417Z,16.73
2019-01-05T07:09:26.625Z,12.03
2019-01-05T07:12:59.575Z,12.93
2019-01-05T07:16:42.005Z,12.77
2019-01-05T07:20:10.978Z,13.30
2019-01-05T07:23:52.170Z,14.00
2019-01-05T07:27:39.668Z,13.87
2019-01-05T07:31:14.161Z,13.87
2019-01-05T07:35:00.819Z,12.03
2019-01-05T07:38:13.370Z,12.80
2019-01-05T07:42:17.557Z,9.90
2019-01-05T07:45:46.483Z,8.97
2019-01-05T07:49:08.735Z,7.73
2019-01-05T07:52:34.596Z,9.50
2019-01-05T07:56:29.214Z,8.30
2019-01-05T08:00:04.121Z,7.07
2019-01-05T08:03:43.388Z,7.27
2019-01-05T08:07:21.248Z,10.63
2019-01-05T08:11:03.897Z,6.97
2019-01-05T08:14:32.900Z,7.93
2019-01-05T08:18:04.639Z,11.27
2019-01-05T08:21:34.174Z,9.47
2019-01-05T08:25:19.362Z,5.63
2019-01-05T08:28:58.520Z,7.17
2019-01-05T08:32:59.310Z,7.60
2019-01-05T08:36:34.589Z,7.80
2019-01-05T08:40:28.589Z,8.97
2019-01-05T08:44:30.692Z,15.03
2019-01-05T08:48:09.114Z,9.77
2019-01-05T08:51:44.049Z,8.90
2019-01-05T08:55:16.315Z,11.93
2019-01-05T08:58:55.592Z,8.30
2019-01-05T09:02:34.619Z,14.17
2019-01-05T09:05:58.987Z,12.17
2019-01-05T09:09:28.457Z,12.90
2019-01-05T09:12:52.046Z,11.47
2019-01-05T09:16:24.757Z,11.93
2019-01-05T09:20:07.765Z,14.17
2019-01-05T09:23:31.378Z,13.53
2019-01-05T09:26:59.622Z,9.07
2019-01-05T09:30:37.677Z,15.63
2019-01-05T09:34:19.245Z,11.37
2019-01-05T09:38:23.896Z,12.00
2019-01-05T09:42:11.047Z,18.47
2019-01-05T09:45:40.294Z,11.43
2019-01-05T09:49:05.031Z,11.50
2019-01-05T09:52:36.739Z,16.53
2019-01-05T09:56:00.586Z,9.97
2019-01-05T09:59:27.394Z,11.50
2019-01-05T10:03:08.735Z,12.47
2019-01-05T10:06:35.674Z,8.93
2019-01-05T10:10:32.558Z,8.73
2019-01-05T10:14:02.532Z,14.10
2019-01-05T10:17:37.094Z,8.97
2019-01-05T10:21:19.710Z,9.97
2019-01-05T10:24:56.774Z,11.37
2019-01-05T10:28:39.612Z,12.00
2019-01-05T10:32:09.782Z,13.73
2019-01-05T10:35:51.760Z,10.00
2019-01-05T10:39:18.415Z,9.93
2019-01-05T10:42:58.043Z,9.17
2019-01-05T10:46:24.716Z,9.13
2019-01-05T10:50:22.600Z,16.63
2019-01-05T10:54:22.518Z,13.43
2019-01-05T10:57:52.958Z,9.73
2019-01-05T11:01:42.646Z,9.03
2019-01-05T11:05:44.792Z,13.00
2019-01-05T11:09:49.572Z,10.33
2019-01-05T11:13:44.225Z,14.00
2019-01-05T11:17:12.594Z,9.73
2019-01-05T11:20:35.850Z,9.57
2019-01-05T11:24:25.831Z,9.60
2019-01-05T11:28:20.940Z,10.13
2019-01-05T11:31:47.986Z,18.10
2019-01-05T11:38:49.799Z,11.87
2019-01-05T11:42:11.945Z,8.90
2019-01-05T11:45:30.881Z,12.30
2019-01-05T11:49:33.926Z,10.70
2019-01-05T11:53:04.641Z,11.90
2019-01-05T11:56:58.113Z,10.17
2019-01-05T12:00:22.965Z,12.30
2019-01-05T12:04:30.111Z,8.73
2019-01-05T12:08:19.386Z,11.30
2019-01-05T12:12:15.537Z,11.87
2019-01-05T12:15:51.003Z,9.27
2019-01-05T12:19:25.173Z,14.40
2019-01-05T12:23:07.003Z,10.93
2019-01-05T12:27:03.130Z,9.63
2019-01-05T12:30:35.591Z,9.13
2019-01-05T12:34:14.360Z,12.33
2019-01-05T12:37:44.696Z,7.87
2019-01-05T12:41:11.028Z,15.33
2019-01-05T12:48:46.516Z,12.97
2019-01-05T12:52:12.535Z,13.47
2019-01-05T12:55:47.849Z,14.10
2019-01-05T12:59:35.859Z,14.37
2019-01-05T13:03:23.688Z,9.23
2019-01-05T13:06:51.369Z,14.37
2019-01-05T13:10:26.434Z,12.27
2019-01-05T13:13:55.732Z,13.73
2019-01-05T13:17:26.284Z,12.13
2019-01-05T13:20:42.877Z,10.27
2019-01-05T13:24:12.031Z,15.03
2019-01-05T13:27:57.260Z,11.20
2019-01-05T13:31:41.422Z,17.90
2019-01-05T13:35:14.546Z,7.80
2019-01-05T13:38:55.508Z,10.03
2019-01-05T13:42:31.157Z,21.00
2019-01-05T13:46:34.955Z,13.73
2019-01-05T13:50:12.571Z,10.93
2019-01-05T13:53:30.256Z,13.20
2019-01-05T13:56:58.390Z,16.93
2019-01-05T14:00:14.094Z,11.30
2019-01-05T14:03:11.423Z,14.37
2019-01-05T14:06:20.270Z,16.60
2019-01-05T14:09:16.312Z,12.77
2019-01-05T14:12:28.631Z,8.60
2019-01-05T14:15:23.837Z,14.50
2019-01-05T14:18:17.561Z,12.83
2019-01-05T14:21:14.037Z,11.73
2019-01-05T14:23:57.269Z,13.83
2019-01-05T14:26:50.851Z,11.00
2019-01-05T14:29:50.753Z,10.33
2019-01-05T14:32:47.097Z,9.47
2019-01-05T14:35:50.388Z,11.03
2019-01-05T14:38:54.885Z,13.33
2019-01-05T14:41:53.810Z,9.23
2019-01-05T14:44:52.463Z,9.43
2019-01-05T14:47:54.351Z,8.47
2019-01-05T14:50:48.781Z,14.07
2019-01-05T14:53:38.445Z,9.80
2019-01-05T14:56:32.631Z,11.27
2019-01-05T14:59:50.360Z,12.50
2019-01-05T15:02:52.056Z,12.13
2019-01-05T15:05:45.397Z,13.43
2019-01-05T15:08:38.085Z,14.20
2019-01-05T15:11:38.235Z,9.57
2019-01-05T15:14:41.447Z,8.00
2019-01-05T15:17:45.376Z,9.50
2019-01-05T15:20:45.650Z,11.13
2019-01-05T15:23:44.916Z,12.90
2019-01-05T15:26:47.581Z,11.57
2019-01-05T15:30:03.369Z,8.30
2019-01-05T15:33:11.542Z,9.87
2019-01-05T15:36:11.594Z,9.73
2019-01-05T15:39:01.710Z,8.73
2019-01-05T15:42:08.577Z,11.17
2019-01-05T15:45:03.159Z,8.00
2019-01-05T15:47:51.986Z,10.00
2019-01-05T15:50:56.056Z,10.20
2019-01-05T15:54:01.628Z,15.00
2019-01-05T15:56:56.917Z,13.07
2019-01-05T16:00:01.881Z,11.20
2019-01-05T16:02:58.258Z,10.77
2019-01-05T16:05:47.299Z,14.90
2019-01-05T16:08:41.446Z,12.67
2019-01-05T16:11:31.654Z,14.70
2019-01-05T16:14:21.436Z,14.53
2019-01-05T16:17:26.970Z,13.13
2019-01-05T16:20:33.113Z,11.43
2019-01-05T16:23:26.623Z,13.10
2019-01-05T16:26:17.644Z,14.50
2019-01-05T16:29:08.267Z,11.73
2019-01-05T16:32:11.928Z,17.10
2019-01-05T16:35:06.540Z,18.93
2019-01-05T16:38:09.264Z,12.93
2019-01-05T16:41:14.101Z,9.83
2019-01-05T16:44:12.202Z,13.03
2019-01-05T16:47:22.771Z,17.53
2019-01-05T16:50:18.285Z,13.60
2019-01-05T16:53:09.308Z,15.70
2019-01-05T16:56:04.024Z,11.63
2019-01-05T16:59:01.349Z,14.57
2019-01-05T17:01:52.733Z,15.60
2019-01-05T17:04:45.063Z,14.03
2019-01-05T17:07:57.039Z,14.73
2019-01-05T17:10:50.145Z,17.53
2019-01-05T17:13:40.994Z,15.17
2019-01-05T17:16:38.866Z,14.50
2019-01-05T17:19:36.692Z,12.43
2019-01-05T17:22:31.366Z,17.07
2019-01-05T17:25:18.290Z,18.07
2019-01-05T17:28:19.992Z,16.27
2019-01-05T17:31:18.833Z,15.33
2019-01-05T17:34:09.341Z,12.73
2019-01-05T17:37:05.240Z,15.80
2019-01-05T17:40:07.961Z,16.40
2019-01-05T17:43:10.819Z,17.50
2019-01-05T17:46:18.849Z,19.70
2019-01-05T17:49:24.495Z,16.90
2019-01-05T17:52:23.304Z,17.90
2019-01-05T17:55:16.132Z,16.00
2019-01-05T17:58:20.341Z,14.83
2019-01-05T18:01:13.697Z,13.20
2019-01-05T18:04:14.446Z,17.83
2019-01-05T18:07:11.663Z,17.80
2019-01-05T18:13:16.769Z,21.23
2019-01-05T18:16:07.210Z,18.60
2019-01-05T18:18:51.214Z,13.60
2019-01-05T18:21:53.014Z,13.87
2019-01-05T18:24:39.491Z,13.80
2019-01-05T18:27:31.322Z,12.73
2019-01-05T18:30:29.622Z,20.70
2019-01-05T18:33:29.136Z,18.00
2019-01-05T18:36:20.667Z,14.83
2019-01-05T18:39:30.711Z,13.77
2019-01-05T18:42:22.551Z,18.87
2019-01-05T18:45:18.555Z,14.40
2019-01-05T18:48:10.150Z,14.90
2019-01-05T18:51:15.312Z,15.53
2019-01-05T18:54:08.094Z,14.80
2019-01-05T18:57:02.526Z,14.93
2019-01-05T19:00:01.226Z,15.40
2019-01-05T19:02:57.816Z,21.83
2019-01-05T19:05:50.694Z,14.07
2019-01-05T19:08:45.712Z,12.53
2019-01-05T19:11:51.625Z,19.00
2019-01-05T19:15:03.853Z,22.37
2019-01-05T19:17:59.201Z,14.23
2019-01-05T19:20:54.996Z,13.13
2019-01-05T19:24:06.076Z,14.77
2019-01-05T19:27:02.410Z,15.70
2019-01-05T19:30:01.740Z,20.70
2019-01-05T19:33:00.944Z,17.67
2019-01-05T19:36:09.160Z,15.83
2019-01-05T19:39:06.631Z,15.17
2019-01-05T19:42:05.350Z,14.07
2019-01-05T19:45:05.717Z,16.97
2019-01-05T19:48:04.311Z,17.20
2019-01-05T19:50:58.322Z,16.90
2019-01-05T19:54:10.165Z,19.07
2019-01-05T19:57:02.486Z,13.60
2019-01-05T20:00:02.363Z,15.37
2019-01-05T20:03:04.792Z,13.63
2019-01-05T20:05:57.849Z,17.07
2019-01-05T20:09:02.807Z,18.10
2019-01-05T20:12:14.723Z,15.20
2019-01-05T20:15:24.457Z,20.03
2019-01-05T20:18:22.904Z,18.93
2019-01-05T20:21:21.923Z,16.03
2019-01-05T20:24:22.843Z,16.03
2019-01-05T20:27:17.260Z,16.30
2019-01-05T20:30:12.174Z,15.97
2019-01-05T20:33:01.368Z,17.73
2019-01-05T20:35:55.821Z,18.33
2019-01-05T20:38:58.138Z,17.10
2019-01-05T20:42:10.037Z,23.50
2019-01-05T20:45:09.703Z,27.40
2019-01-05T20:48:07.440Z,23.20
2019-01-05T20:50:59.392Z,20.77
2019-01-05T20:53:50.835Z,17.03
2019-01-05T20:56:53.218Z,20.53
2019-01-05T20:59:47.968Z,20.40
2019-01-05T21:02:39.407Z,20.67
2019-01-05T21:05:29.939Z,20.67
2019-01-05T21:08:30.296Z,18.23
2019-01-05T21:11:37.825Z,18.87
2019-01-05T21:14:30.220Z,22.40
2019-01-05T21:17:35.690Z,21.77
2019-01-05T21:20:29.428Z,19.83
2019-01-05T21:23:22.198Z,26.60
2019-01-05T21:26:24.461Z,24.40
2019-01-05T21:29:13.617Z,24.57
2019-01-05T21:32:13.122Z,21.97
2019-01-05T21:35:03.024Z,20.63
2019-01-05T21:38:03.285Z,21.50
2019-01-05T21:41:08.552Z,22.23
2019-01-05T21:43:57.845Z,22.93
2019-01-05T21:47:06.590Z,19.20
2019-01-05T21:50:17.058Z,23.07
2019-01-05T21:53:10.245Z,22.17
2019-01-05T21:56:01.153Z,24.67
2019-01-05T21:58:51.823Z,21.87
2019-01-05T22:01:39.745Z,256.70
2019-01-05T22:04:44.614Z,23.47
2019-01-05T22:07:33.502Z,19.33
2019-01-05T22:10:33.432Z,19.20
2019-01-05T22:13:24.974Z,21.33
2019-01-05T22:16:26.406Z,20.33
2019-01-05T22:19:21.430Z,19.93
2019-01-05T22:22:10.734Z,18.20
2019-01-05T22:25:00.401Z,19.57
2019-01-05T22:28:14.188Z,22.37
2019-01-05T22:31:04.742Z,23.40
2019-01-05T22:34:06.832Z,17.17
2019-01-05T22:37:19.052Z,21.47
2019-01-05T22:40:19.560Z,19.00
2019-01-05T22:43:16.040Z,18.87
2019-01-05T22:46:16.936Z,19.23
2019-01-05T22:49:11.770Z,18.77
2019-01-05T22:52:15.277Z,19.50
2019-01-05T22:55:16.462Z,17.13
2019-01-05T22:58:10.257Z,14.07
2019-01-05T23:01:17.030Z,20.23
2019-01-05T23:04:08.069Z,18.27
2019-01-05T23:07:10.198Z,16.27
2019-01-05T23:10:05.003Z,20.70
2019-01-05T23:13:19.895Z,13.43
2019-01-05T23:16:19.072Z,15.07
2019-01-05T23:19:09.329Z,14.00
2019-01-05T23:22:19.324Z,14.03
2019-01-05T23:25:11.056Z,19.37
2019-01-05T23:28:15.047Z,14.33
2019-01-05T23:31:25.142Z,18.07
2019-01-05T23:34:28.384Z,14.30
2019-01-05T23:37:20.080Z,15.80
2019-01-05T23:40:32.643Z,14.17
2019-01-05T23:43:25.243Z,13.53
2019-01-05T23:46:22.965Z,12.80
2019-01-05T23:49:19.748Z,11.80
2019-01-05T23:52:18.591Z,14.60
2019-01-05T23:55:14.432Z,14.47
2019-01-05T23:58:09.826Z,13.47
